sensor_id;sensor_type;location;lat;lon;timestamp;P1;durP1;ratioP1;P2;durP2;ratioP2
81353;SDS011;70810;52.038;8.524;2024-03-23T00:53:47;16.60;;;6.22;;
81353;SDS011;70810;52.038;8.524;2024-03-23T00:56:16;16.63;;;6.07;;
81353;SDS011;70810;52.038;8.524;2024-03-23T00:58:43;21.63;;;7.53;;
81353;SDS011;70810;52.038;8.524;2024-03-23T01:01:13;22.77;;;6.30;;
81353;SDS011;70810;52.038;8.524;2024-03-23T01:04:14;21.73;;;6.07;;
81353;SDS011;70810;52.038;8.524;2024-03-23T01:06:52;15.45;;;6.05;;
81353;SDS011;70810;52.038;8.524;2024-03-23T01:09:17;15.05;;;5.63;;
81353;SDS011;70810;52.038;8.524;2024-03-23T01:11:49;16.48;;;5.07;;
81353;SDS011;70810;52.038;8.524;2024-03-23T01:14:15;12.93;;;5.15;;
81353;SDS011;70810;52.038;8.524;2024-03-23T01:16:44;22.73;;;5.00;;
81353;SDS011;70810;52.038;8.524;2024-03-23T01:19:12;14.63;;;4.53;;
81353;SDS011;70810;52.038;8.524;2024-03-23T01:21:39;19.00;;;5.35;;
81353;SDS011;70810;52.038;8.524;2024-03-23T01:24:06;16.87;;;5.10;;
81353;SDS011;70810;52.038;8.524;2024-03-23T01:26:35;19.55;;;5.60;;
81353;SDS011;70810;52.038;8.524;2024-03-23T01:29:02;16.50;;;4.55;;
81353;SDS011;70810;52.038;8.524;2024-03-23T01:31:30;13.20;;;4.65;;
81353;SDS011;70810;52.038;8.524;2024-03-23T01:33:55;17.48;;;5.15;;
81353;SDS011;70810;52.038;8.524;2024-03-23T01:36:22;33.13;;;8.05;;
81353;SDS011;70810;52.038;8.524;2024-03-23T01:38:48;15.87;;;5.80;;
81353;SDS011;70810;52.038;8.524;2024-03-23T01:41:16;20.75;;;5.05;;
81353;SDS011;70810;52.038;8.524;2024-03-23T01:43:42;13.48;;;4.50;;
81353;SDS011;70810;52.038;8.524;2024-03-23T01:46:09;18.80;;;5.43;;
81353;SDS011;70810;52.038;8.524;2024-03-23T01:48:35;17.60;;;6.07;;
81353;SDS011;70810;52.038;8.524;2024-03-23T01:51:02;19.10;;;4.60;;
81353;SDS011;70810;52.038;8.524;2024-03-23T01:53:29;19.50;;;5.93;;
81353;SDS011;70810;52.038;8.524;2024-03-23T01:55:56;21.48;;;6.15;;
81353;SDS011;70810;52.038;8.524;2024-03-23T01:58:23;17.63;;;5.30;;
81353;SDS011;70810;52.038;8.524;2024-03-23T02:00:50;18.17;;;6.50;;
81353;SDS011;70810;52.038;8.524;2024-03-23T02:03:23;15.23;;;5.35;;
81353;SDS011;70810;52.038;8.524;2024-03-23T02:05:53;19.65;;;6.25;;
81353;SDS011;70810;52.038;8.524;2024-03-23T02:08:20;22.95;;;6.30;;
81353;SDS011;70810;52.038;8.524;2024-03-23T02:10:48;23.30;;;9.10;;
81353;SDS011;70810;52.038;8.524;2024-03-23T02:13:14;28.80;;;7.53;;
81353;SDS011;70810;52.038;8.524;2024-03-23T02:15:43;16.80;;;6.15;;
81353;SDS011;70810;52.038;8.524;2024-03-23T02:18:09;23.42;;;6.75;;
81353;SDS011;70810;52.038;8.524;2024-03-23T02:20:38;18.15;;;5.90;;
81353;SDS011;70810;52.038;8.524;2024-03-23T02:23:16;20.08;;;6.78;;
81353;SDS011;70810;52.038;8.524;2024-03-23T02:25:44;16.02;;;6.10;;
81353;SDS011;70810;52.038;8.524;2024-03-23T02:28:11;14.75;;;6.05;;
81353;SDS011;70810;52.038;8.524;2024-03-23T02:30:39;14.38;;;6.15;;
81353;SDS011;70810;52.038;8.524;2024-03-23T02:33:06;10.40;;;5.50;;
81353;SDS011;70810;52.038;8.524;2024-03-23T02:35:36;16.98;;;5.82;;
81353;SDS011;70810;52.038;8.524;2024-03-23T02:38:01;13.20;;;4.80;;
81353;SDS011;70810;52.038;8.524;2024-03-23T02:40:37;9.85;;;4.50;;
81353;SDS011;70810;52.038;8.524;2024-03-23T02:43:03;12.27;;;5.82;;
81353;SDS011;70810;52.038;8.524;2024-03-23T02:45:31;11.48;;;5.43;;
81353;SDS011;70810;52.038;8.524;2024-03-23T02:47:57;12.38;;;3.65;;
81353;SDS011;70810;52.038;8.524;2024-03-23T02:50:26;19.55;;;6.53;;
81353;SDS011;70810;52.038;8.524;2024-03-23T02:52:52;15.97;;;6.00;;
81353;SDS011;70810;52.038;8.524;2024-03-23T02:55:20;10.55;;;4.50;;
81353;SDS011;70810;52.038;8.524;2024-03-23T02:57:48;12.77;;;5.30;;
81353;SDS011;70810;52.038;8.524;2024-03-23T03:00:23;5.85;;;3.15;;
81353;SDS011;70810;52.038;8.524;2024-03-23T03:03:01;10.00;;;4.15;;
81353;SDS011;70810;52.038;8.524;2024-03-23T03:05:31;13.27;;;5.95;;
81353;SDS011;70810;52.038;8.524;2024-03-23T03:07:58;16.73;;;4.22;;
81353;SDS011;70810;52.038;8.524;2024-03-23T03:10:24;8.55;;;3.70;;
81353;SDS011;70810;52.038;8.524;2024-03-23T03:12:54;11.30;;;3.90;;
81353;SDS011;70810;52.038;8.524;2024-03-23T03:15:24;13.35;;;6.20;;
81353;SDS011;70810;52.038;8.524;2024-03-23T03:17:52;18.70;;;4.45;;
81353;SDS011;70810;52.038;8.524;2024-03-23T03:20:22;9.77;;;4.28;;
81353;SDS011;70810;52.038;8.524;2024-03-23T03:22:52;17.08;;;5.05;;
81353;SDS011;70810;52.038;8.524;2024-03-23T03:25:26;13.55;;;4.97;;
81353;SDS011;70810;52.038;8.524;2024-03-23T03:27:54;13.73;;;4.17;;
81353;SDS011;70810;52.038;8.524;2024-03-23T03:30:23;8.52;;;4.60;;
81353;SDS011;70810;52.038;8.524;2024-03-23T03:32:51;14.15;;;4.68;;
81353;SDS011;70810;52.038;8.524;2024-03-23T03:35:25;10.75;;;4.43;;
81353;SDS011;70810;52.038;8.524;2024-03-23T03:37:51;12.87;;;4.57;;
81353;SDS011;70810;52.038;8.524;2024-03-23T03:40:22;9.13;;;3.75;;
81353;SDS011;70810;52.038;8.524;2024-03-23T03:42:51;12.77;;;4.15;;
81353;SDS011;70810;52.038;8.524;2024-03-23T03:45:23;10.75;;;3.30;;
81353;SDS011;70810;52.038;8.524;2024-03-23T03:47:49;10.35;;;3.35;;
81353;SDS011;70810;52.038;8.524;2024-03-23T03:53:08;11.30;;;5.75;;
81353;SDS011;70810;52.038;8.524;2024-03-23T03:55:36;11.13;;;4.00;;
81353;SDS011;70810;52.038;8.524;2024-03-23T03:58:01;16.95;;;4.40;;
81353;SDS011;70810;52.038;8.524;2024-03-23T04:00:32;13.35;;;5.85;;
81353;SDS011;70810;52.038;8.524;2024-03-23T04:03:00;8.93;;;3.72;;
81353;SDS011;70810;52.038;8.524;2024-03-23T04:05:26;20.10;;;6.27;;
81353;SDS011;70810;52.038;8.524;2024-03-23T04:07:52;13.45;;;3.53;;
81353;SDS011;70810;52.038;8.524;2024-03-23T04:10:22;14.30;;;6.07;;
81353;SDS011;70810;52.038;8.524;2024-03-23T04:12:49;10.40;;;3.65;;
81353;SDS011;70810;52.038;8.524;2024-03-23T04:15:17;14.23;;;5.82;;
81353;SDS011;70810;52.038;8.524;2024-03-23T04:17:50;10.93;;;4.00;;
81353;SDS011;70810;52.038;8.524;2024-03-23T04:20:16;11.05;;;4.00;;
81353;SDS011;70810;52.038;8.524;2024-03-23T04:22:51;11.02;;;4.10;;
81353;SDS011;70810;52.038;8.524;2024-03-23T04:25:20;21.42;;;5.57;;
81353;SDS011;70810;52.038;8.524;2024-03-23T04:27:50;17.65;;;6.10;;
81353;SDS011;70810;52.038;8.524;2024-03-23T04:30:17;10.32;;;4.63;;
81353;SDS011;70810;52.038;8.524;2024-03-23T04:32:58;21.73;;;7.13;;
81353;SDS011;70810;52.038;8.524;2024-03-23T04:35:28;11.93;;;4.50;;
81353;SDS011;70810;52.038;8.524;2024-03-23T04:38:01;11.45;;;4.78;;
81353;SDS011;70810;52.038;8.524;2024-03-23T04:40:35;13.15;;;4.97;;
81353;SDS011;70810;52.038;8.524;2024-03-23T04:43:03;18.45;;;6.07;;
81353;SDS011;70810;52.038;8.524;2024-03-23T04:45:32;17.17;;;5.38;;
81353;SDS011;70810;52.038;8.524;2024-03-23T04:48:01;12.32;;;5.13;;
81353;SDS011;70810;52.038;8.524;2024-03-23T04:50:31;17.30;;;7.20;;
81353;SDS011;70810;52.038;8.524;2024-03-23T04:52:58;11.43;;;5.80;;
81353;SDS011;70810;52.038;8.524;2024-03-23T04:55:25;12.50;;;4.70;;
81353;SDS011;70810;52.038;8.524;2024-03-23T04:57:55;17.08;;;6.55;;
81353;SDS011;70810;52.038;8.524;2024-03-23T05:00:24;18.80;;;6.28;;
81353;SDS011;70810;52.038;8.524;2024-03-23T05:02:53;12.90;;;4.50;;
81353;SDS011;70810;52.038;8.524;2024-03-23T05:05:20;16.70;;;5.45;;
81353;SDS011;70810;52.038;8.524;2024-03-23T05:07:47;11.80;;;6.55;;
81353;SDS011;70810;52.038;8.524;2024-03-23T05:10:12;15.73;;;7.97;;
81353;SDS011;70810;52.038;8.524;2024-03-23T05:12:40;28.20;;;8.80;;
81353;SDS011;70810;52.038;8.524;2024-03-23T05:15:07;22.42;;;8.57;;
81353;SDS011;70810;52.038;8.524;2024-03-23T05:17:34;22.80;;;9.65;;
81353;SDS011;70810;52.038;8.524;2024-03-23T05:20:01;22.58;;;10.65;;
81353;SDS011;70810;52.038;8.524;2024-03-23T05:22:30;19.98;;;5.60;;
81353;SDS011;70810;52.038;8.524;2024-03-23T05:24:56;16.95;;;6.65;;
81353;SDS011;70810;52.038;8.524;2024-03-23T05:27:22;25.63;;;9.27;;
81353;SDS011;70810;52.038;8.524;2024-03-23T05:29:48;24.90;;;7.50;;
81353;SDS011;70810;52.038;8.524;2024-03-23T05:32:15;21.80;;;7.50;;
81353;SDS011;70810;52.038;8.524;2024-03-23T05:34:41;17.63;;;8.13;;
81353;SDS011;70810;52.038;8.524;2024-03-23T05:37:07;19.92;;;8.32;;
81353;SDS011;70810;52.038;8.524;2024-03-23T05:39:34;41.27;;;11.70;;
81353;SDS011;70810;52.038;8.524;2024-03-23T05:42:01;28.98;;;10.38;;
81353;SDS011;70810;52.038;8.524;2024-03-23T05:44:27;22.23;;;9.60;;
81353;SDS011;70810;52.038;8.524;2024-03-23T05:46:54;34.97;;;11.10;;
81353;SDS011;70810;52.038;8.524;2024-03-23T05:49:20;32.53;;;9.93;;
81353;SDS011;70810;52.038;8.524;2024-03-23T05:51:46;29.15;;;12.82;;
81353;SDS011;70810;52.038;8.524;2024-03-23T05:54:12;33.97;;;13.90;;
81353;SDS011;70810;52.038;8.524;2024-03-23T05:56:41;35.30;;;10.35;;
81353;SDS011;70810;52.038;8.524;2024-03-23T05:59:13;24.25;;;10.05;;
81353;SDS011;70810;52.038;8.524;2024-03-23T06:01:52;40.70;;;13.70;;
81353;SDS011;70810;52.038;8.524;2024-03-23T06:04:18;26.92;;;8.80;;
81353;SDS011;70810;52.038;8.524;2024-03-23T06:06:46;24.98;;;13.35;;
81353;SDS011;70810;52.038;8.524;2024-03-23T06:09:12;42.13;;;19.60;;
81353;SDS011;70810;52.038;8.524;2024-03-23T06:11:38;31.15;;;11.32;;
81353;SDS011;70810;52.038;8.524;2024-03-23T06:14:06;34.72;;;13.75;;
81353;SDS011;70810;52.038;8.524;2024-03-23T06:16:34;27.15;;;10.45;;
81353;SDS011;70810;52.038;8.524;2024-03-23T06:19:03;38.90;;;17.38;;
81353;SDS011;70810;52.038;8.524;2024-03-23T06:21:31;34.00;;;13.27;;
81353;SDS011;70810;52.038;8.524;2024-03-23T06:24:01;37.08;;;19.25;;
81353;SDS011;70810;52.038;8.524;2024-03-23T06:26:28;26.88;;;9.60;;
81353;SDS011;70810;52.038;8.524;2024-03-23T06:28:55;34.83;;;12.70;;
81353;SDS011;70810;52.038;8.524;2024-03-23T06:31:22;43.28;;;17.67;;
81353;SDS011;70810;52.038;8.524;2024-03-23T06:33:48;37.20;;;17.05;;
81353;SDS011;70810;52.038;8.524;2024-03-23T06:36:14;43.00;;;19.48;;
81353;SDS011;70810;52.038;8.524;2024-03-23T06:38:40;37.67;;;12.40;;
81353;SDS011;70810;52.038;8.524;2024-03-23T06:41:07;38.30;;;16.80;;
81353;SDS011;70810;52.038;8.524;2024-03-23T06:43:33;38.17;;;13.98;;
81353;SDS011;70810;52.038;8.524;2024-03-23T06:46:02;72.00;;;39.33;;
81353;SDS011;70810;52.038;8.524;2024-03-23T06:48:29;32.83;;;16.02;;
81353;SDS011;70810;52.038;8.524;2024-03-23T06:50:56;32.50;;;14.65;;
81353;SDS011;70810;52.038;8.524;2024-03-23T06:53:23;32.50;;;12.65;;
81353;SDS011;70810;52.038;8.524;2024-03-23T06:55:52;44.13;;;23.75;;
81353;SDS011;70810;52.038;8.524;2024-03-23T06:58:21;26.48;;;10.88;;
81353;SDS011;70810;52.038;8.524;2024-03-23T07:00:48;34.80;;;10.10;;
81353;SDS011;70810;52.038;8.524;2024-03-23T07:03:16;36.43;;;10.53;;
81353;SDS011;70810;52.038;8.524;2024-03-23T07:05:43;36.67;;;16.42;;
81353;SDS011;70810;52.038;8.524;2024-03-23T07:08:10;23.50;;;9.05;;
81353;SDS011;70810;52.038;8.524;2024-03-23T07:10:39;34.88;;;15.23;;
81353;SDS011;70810;52.038;8.524;2024-03-23T07:13:05;32.42;;;13.45;;
81353;SDS011;70810;52.038;8.524;2024-03-23T07:15:32;32.17;;;13.25;;
81353;SDS011;70810;52.038;8.524;2024-03-23T07:17:58;27.65;;;11.98;;
81353;SDS011;70810;52.038;8.524;2024-03-23T07:23:16;28.98;;;13.15;;
81353;SDS011;70810;52.038;8.524;2024-03-23T07:25:44;37.20;;;14.73;;
81353;SDS011;70810;52.038;8.524;2024-03-23T07:28:10;28.08;;;11.48;;
81353;SDS011;70810;52.038;8.524;2024-03-23T07:30:41;35.72;;;16.25;;
81353;SDS011;70810;52.038;8.524;2024-03-23T07:33:08;28.02;;;12.38;;
81353;SDS011;70810;52.038;8.524;2024-03-23T07:35:36;25.58;;;11.43;;
81353;SDS011;70810;52.038;8.524;2024-03-23T07:38:06;31.17;;;14.90;;
81353;SDS011;70810;52.038;8.524;2024-03-23T07:40:37;30.65;;;14.23;;
81353;SDS011;70810;52.038;8.524;2024-03-23T07:43:02;26.60;;;12.75;;
81353;SDS011;70810;52.038;8.524;2024-03-23T07:45:40;35.90;;;14.30;;
81353;SDS011;70810;52.038;8.524;2024-03-23T07:48:25;28.33;;;12.65;;
81353;SDS011;70810;52.038;8.524;2024-03-23T07:51:16;40.17;;;16.05;;
81353;SDS011;70810;52.038;8.524;2024-03-23T07:53:55;34.63;;;11.75;;
81353;SDS011;70810;52.038;8.524;2024-03-23T07:56:22;43.65;;;19.55;;
81353;SDS011;70810;52.038;8.524;2024-03-23T07:59:04;34.38;;;15.30;;
81353;SDS011;70810;52.038;8.524;2024-03-23T08:01:33;33.88;;;19.50;;
81353;SDS011;70810;52.038;8.524;2024-03-23T08:04:05;39.70;;;18.05;;
81353;SDS011;70810;52.038;8.524;2024-03-23T08:06:31;45.30;;;19.93;;
81353;SDS011;70810;52.038;8.524;2024-03-23T08:09:03;46.45;;;24.27;;
81353;SDS011;70810;52.038;8.524;2024-03-23T08:11:35;32.80;;;14.50;;
81353;SDS011;70810;52.038;8.524;2024-03-23T08:14:12;32.22;;;14.27;;
81353;SDS011;70810;52.038;8.524;2024-03-23T08:16:38;36.17;;;14.60;;
81353;SDS011;70810;52.038;8.524;2024-03-23T08:19:08;33.83;;;16.27;;
81353;SDS011;70810;52.038;8.524;2024-03-23T08:21:34;36.72;;;19.92;;
81353;SDS011;70810;52.038;8.524;2024-03-23T08:24:04;25.27;;;12.40;;
81353;SDS011;70810;52.038;8.524;2024-03-23T08:26:32;31.20;;;14.68;;
81353;SDS011;70810;52.038;8.524;2024-03-23T08:29:04;35.00;;;12.00;;
81353;SDS011;70810;52.038;8.524;2024-03-23T08:31:55;30.10;;;13.73;;
81353;SDS011;70810;52.038;8.524;2024-03-23T08:35:05;34.35;;;13.63;;
81353;SDS011;70810;52.038;8.524;2024-03-23T08:37:33;33.50;;;11.82;;
81353;SDS011;70810;52.038;8.524;2024-03-23T08:40:00;35.17;;;13.67;;
81353;SDS011;70810;52.038;8.524;2024-03-23T08:42:29;28.45;;;13.13;;
81353;SDS011;70810;52.038;8.524;2024-03-23T08:44:55;24.73;;;10.77;;
81353;SDS011;70810;52.038;8.524;2024-03-23T08:47:22;29.50;;;12.85;;
81353;SDS011;70810;52.038;8.524;2024-03-23T08:49:47;30.70;;;14.10;;
81353;SDS011;70810;52.038;8.524;2024-03-23T08:52:14;36.15;;;15.73;;
81353;SDS011;70810;52.038;8.524;2024-03-23T08:54:40;34.67;;;17.30;;
81353;SDS011;70810;52.038;8.524;2024-03-23T08:57:10;24.58;;;9.50;;
81353;SDS011;70810;52.038;8.524;2024-03-23T08:59:37;31.40;;;13.73;;
81353;SDS011;70810;52.038;8.524;2024-03-23T09:02:04;28.80;;;14.85;;
81353;SDS011;70810;52.038;8.524;2024-03-23T09:04:30;28.83;;;13.30;;
81353;SDS011;70810;52.038;8.524;2024-03-23T09:06:57;36.35;;;19.65;;
81353;SDS011;70810;52.038;8.524;2024-03-23T09:09:26;21.13;;;7.90;;
81353;SDS011;70810;52.038;8.524;2024-03-23T09:11:55;24.92;;;9.90;;
81353;SDS011;70810;52.038;8.524;2024-03-23T09:14:23;30.73;;;9.65;;
81353;SDS011;70810;52.038;8.524;2024-03-23T09:16:50;25.27;;;11.18;;
81353;SDS011;70810;52.038;8.524;2024-03-23T09:19:17;29.98;;;17.02;;
81353;SDS011;70810;52.038;8.524;2024-03-23T09:21:48;22.52;;;9.60;;
81353;SDS011;70810;52.038;8.524;2024-03-23T09:24:18;26.52;;;9.50;;
81353;SDS011;70810;52.038;8.524;2024-03-23T09:26:48;20.92;;;9.07;;
81353;SDS011;70810;52.038;8.524;2024-03-23T09:29:15;24.00;;;11.18;;
81353;SDS011;70810;52.038;8.524;2024-03-23T09:31:43;27.95;;;9.70;;
81353;SDS011;70810;52.038;8.524;2024-03-23T09:34:08;18.95;;;8.55;;
81353;SDS011;70810;52.038;8.524;2024-03-23T09:36:35;30.25;;;11.80;;
81353;SDS011;70810;52.038;8.524;2024-03-23T09:39:01;55.90;;;35.30;;
81353;SDS011;70810;52.038;8.524;2024-03-23T09:41:30;17.67;;;8.68;;
81353;SDS011;70810;52.038;8.524;2024-03-23T09:43:57;12.80;;;6.35;;
81353;SDS011;70810;52.038;8.524;2024-03-23T09:46:24;19.05;;;8.18;;
81353;SDS011;70810;52.038;8.524;2024-03-23T09:48:54;20.60;;;12.37;;
81353;SDS011;70810;52.038;8.524;2024-03-23T09:51:24;20.38;;;7.55;;
81353;SDS011;70810;52.038;8.524;2024-03-23T09:53:53;27.92;;;11.68;;
81353;SDS011;70810;52.038;8.524;2024-03-23T09:56:43;14.98;;;5.95;;
81353;SDS011;70810;52.038;8.524;2024-03-23T09:59:26;14.68;;;6.80;;
81353;SDS011;70810;52.038;8.524;2024-03-23T10:02:08;16.65;;;6.65;;
81353;SDS011;70810;52.038;8.524;2024-03-23T10:04:44;20.75;;;10.52;;
81353;SDS011;70810;52.038;8.524;2024-03-23T10:07:19;12.15;;;6.45;;
81353;SDS011;70810;52.038;8.524;2024-03-23T10:10:11;19.98;;;7.00;;
81353;SDS011;70810;52.038;8.524;2024-03-23T10:12:59;12.13;;;5.38;;
81353;SDS011;70810;52.038;8.524;2024-03-23T10:15:25;17.80;;;6.97;;
81353;SDS011;70810;52.038;8.524;2024-03-23T10:17:54;22.23;;;8.95;;
81353;SDS011;70810;52.038;8.524;2024-03-23T10:20:22;24.50;;;9.27;;
81353;SDS011;70810;52.038;8.524;2024-03-23T10:22:50;12.35;;;5.25;;
81353;SDS011;70810;52.038;8.524;2024-03-23T10:25:22;19.88;;;5.95;;
81353;SDS011;70810;52.038;8.524;2024-03-23T10:27:58;16.05;;;6.18;;
81353;SDS011;70810;52.038;8.524;2024-03-23T10:30:30;15.73;;;5.47;;
81353;SDS011;70810;52.038;8.524;2024-03-23T10:33:07;18.35;;;6.63;;
81353;SDS011;70810;52.038;8.524;2024-03-23T10:38:54;20.02;;;5.70;;
81353;SDS011;70810;52.038;8.524;2024-03-23T10:41:49;20.42;;;8.63;;
81353;SDS011;70810;52.038;8.524;2024-03-23T10:44:27;23.70;;;7.68;;
81353;SDS011;70810;52.038;8.524;2024-03-23T10:47:03;14.80;;;6.75;;
81353;SDS011;70810;52.038;8.524;2024-03-23T10:49:32;13.40;;;5.72;;
81353;SDS011;70810;52.038;8.524;2024-03-23T10:52:02;18.45;;;10.10;;
81353;SDS011;70810;52.038;8.524;2024-03-23T10:54:33;16.35;;;8.02;;
81353;SDS011;70810;52.038;8.524;2024-03-23T10:57:04;16.08;;;7.97;;
81353;SDS011;70810;52.038;8.524;2024-03-23T10:59:33;18.65;;;8.95;;
81353;SDS011;70810;52.038;8.524;2024-03-23T11:02:06;22.50;;;11.10;;
81353;SDS011;70810;52.038;8.524;2024-03-23T11:04:35;15.73;;;7.50;;
81353;SDS011;70810;52.038;8.524;2024-03-23T11:07:11;14.75;;;8.80;;
81353;SDS011;70810;52.038;8.524;2024-03-23T11:09:54;16.40;;;8.07;;
81353;SDS011;70810;52.038;8.524;2024-03-23T11:12:36;11.18;;;4.35;;
81353;SDS011;70810;52.038;8.524;2024-03-23T11:15:04;11.43;;;5.63;;
81353;SDS011;70810;52.038;8.524;2024-03-23T11:17:44;16.65;;;5.15;;
81353;SDS011;70810;52.038;8.524;2024-03-23T11:20:35;16.25;;;9.98;;
81353;SDS011;70810;52.038;8.524;2024-03-23T11:23:07;11.55;;;4.60;;
81353;SDS011;70810;52.038;8.524;2024-03-23T11:25:33;10.63;;;5.00;;
81353;SDS011;70810;52.038;8.524;2024-03-23T11:31:09;8.65;;;4.65;;
81353;SDS011;70810;52.038;8.524;2024-03-23T11:33:38;8.50;;;3.70;;
81353;SDS011;70810;52.038;8.524;2024-03-23T11:37:03;10.32;;;3.00;;
81353;SDS011;70810;52.038;8.524;2024-03-23T11:39:40;11.13;;;3.97;;
81353;SDS011;70810;52.038;8.524;2024-03-23T11:42:15;9.27;;;5.22;;
81353;SDS011;70810;52.038;8.524;2024-03-23T11:44:42;14.93;;;7.97;;
81353;SDS011;70810;52.038;8.524;2024-03-23T11:47:13;10.45;;;3.38;;
81353;SDS011;70810;52.038;8.524;2024-03-23T11:49:40;12.30;;;6.05;;
81353;SDS011;70810;52.038;8.524;2024-03-23T11:52:30;14.85;;;7.03;;
81353;SDS011;70810;52.038;8.524;2024-03-23T11:55:24;16.80;;;6.80;;
81353;SDS011;70810;52.038;8.524;2024-03-23T11:57:53;12.48;;;4.93;;
81353;SDS011;70810;52.038;8.524;2024-03-23T12:00:21;10.40;;;5.20;;
81353;SDS011;70810;52.038;8.524;2024-03-23T12:02:53;15.93;;;6.53;;
81353;SDS011;70810;52.038;8.524;2024-03-23T12:05:26;18.67;;;5.18;;
81353;SDS011;70810;52.038;8.524;2024-03-23T12:08:17;18.13;;;9.10;;
81353;SDS011;70810;52.038;8.524;2024-03-23T12:11:09;18.35;;;11.00;;
81353;SDS011;70810;52.038;8.524;2024-03-23T12:13:42;14.85;;;5.25;;
81353;SDS011;70810;52.038;8.524;2024-03-23T12:16:24;13.02;;;5.75;;
81353;SDS011;70810;52.038;8.524;2024-03-23T12:18:54;12.45;;;6.25;;
81353;SDS011;70810;52.038;8.524;2024-03-23T12:21:34;28.75;;;12.52;;
81353;SDS011;70810;52.038;8.524;2024-03-23T12:24:01;11.93;;;4.73;;
81353;SDS011;70810;52.038;8.524;2024-03-23T12:26:55;16.25;;;6.13;;
81353;SDS011;70810;52.038;8.524;2024-03-23T12:29:26;13.70;;;6.93;;
81353;SDS011;70810;52.038;8.524;2024-03-23T12:31:56;18.55;;;8.93;;
81353;SDS011;70810;52.038;8.524;2024-03-23T12:34:27;7.65;;;3.92;;
81353;SDS011;70810;52.038;8.524;2024-03-23T12:36:57;12.52;;;6.22;;
81353;SDS011;70810;52.038;8.524;2024-03-23T12:39:31;9.48;;;3.47;;
81353;SDS011;70810;52.038;8.524;2024-03-23T12:42:12;12.52;;;6.00;;
81353;SDS011;70810;52.038;8.524;2024-03-23T12:44:44;10.30;;;4.65;;
81353;SDS011;70810;52.038;8.524;2024-03-23T12:47:20;11.40;;;4.80;;
81353;SDS011;70810;52.038;8.524;2024-03-23T12:49:47;11.05;;;3.65;;
81353;SDS011;70810;52.038;8.524;2024-03-23T12:52:15;13.05;;;7.00;;
81353;SDS011;70810;52.038;8.524;2024-03-23T12:54:42;13.18;;;5.30;;
81353;SDS011;70810;52.038;8.524;2024-03-23T12:57:18;18.10;;;9.13;;
81353;SDS011;70810;52.038;8.524;2024-03-23T12:59:44;12.95;;;7.07;;
81353;SDS011;70810;52.038;8.524;2024-03-23T13:02:17;9.20;;;5.10;;
81353;SDS011;70810;52.038;8.524;2024-03-23T13:04:46;14.00;;;6.10;;
81353;SDS011;70810;52.038;8.524;2024-03-23T13:07:14;17.45;;;7.35;;
81353;SDS011;70810;52.038;8.524;2024-03-23T13:09:39;12.97;;;5.50;;
81353;SDS011;70810;52.038;8.524;2024-03-23T13:12:09;9.02;;;4.93;;
81353;SDS011;70810;52.038;8.524;2024-03-23T13:14:39;17.80;;;8.07;;
81353;SDS011;70810;52.038;8.524;2024-03-23T13:17:09;9.43;;;5.90;;
81353;SDS011;70810;52.038;8.524;2024-03-23T13:19:35;7.28;;;3.47;;
81353;SDS011;70810;52.038;8.524;2024-03-23T13:22:04;6.80;;;4.05;;
81353;SDS011;70810;52.038;8.524;2024-03-23T13:24:32;11.13;;;4.40;;
81353;SDS011;70810;52.038;8.524;2024-03-23T13:27:05;15.93;;;9.48;;
81353;SDS011;70810;52.038;8.524;2024-03-23T13:29:40;12.45;;;7.63;;
81353;SDS011;70810;52.038;8.524;2024-03-23T13:32:14;20.70;;;10.95;;
81353;SDS011;70810;52.038;8.524;2024-03-23T13:34:46;8.23;;;4.18;;
81353;SDS011;70810;52.038;8.524;2024-03-23T13:37:23;8.60;;;5.03;;
81353;SDS011;70810;52.038;8.524;2024-03-23T13:39:58;12.07;;;4.70;;
81353;SDS011;70810;52.038;8.524;2024-03-23T13:42:31;17.20;;;8.50;;
81353;SDS011;70810;52.038;8.524;2024-03-23T13:45:08;10.38;;;5.10;;
81353;SDS011;70810;52.038;8.524;2024-03-23T13:47:46;14.80;;;8.82;;
81353;SDS011;70810;52.038;8.524;2024-03-23T13:50:12;19.35;;;9.30;;
81353;SDS011;70810;52.038;8.524;2024-03-23T13:52:40;17.70;;;9.63;;
81353;SDS011;70810;52.038;8.524;2024-03-23T13:55:14;10.40;;;5.75;;
81353;SDS011;70810;52.038;8.524;2024-03-23T13:58:04;14.50;;;7.05;;
81353;SDS011;70810;52.038;8.524;2024-03-23T14:00:34;10.43;;;6.30;;
81353;SDS011;70810;52.038;8.524;2024-03-23T14:03:21;15.50;;;5.85;;
81353;SDS011;70810;52.038;8.524;2024-03-23T14:05:57;11.50;;;5.38;;
81353;SDS011;70810;52.038;8.524;2024-03-23T14:08:23;11.00;;;6.43;;
81353;SDS011;70810;52.038;8.524;2024-03-23T14:10:51;15.07;;;5.95;;
81353;SDS011;70810;52.038;8.524;2024-03-23T14:13:18;10.77;;;4.90;;
81353;SDS011;70810;52.038;8.524;2024-03-23T14:15:48;18.23;;;8.85;;
81353;SDS011;70810;52.038;8.524;2024-03-23T14:18:23;19.52;;;8.55;;
81353;SDS011;70810;52.038;8.524;2024-03-23T14:20:58;20.90;;;10.10;;
81353;SDS011;70810;52.038;8.524;2024-03-23T14:23:27;24.67;;;14.75;;
81353;SDS011;70810;52.038;8.524;2024-03-23T14:26:04;14.48;;;6.82;;
81353;SDS011;70810;52.038;8.524;2024-03-23T14:28:49;12.20;;;4.32;;
81353;SDS011;70810;52.038;8.524;2024-03-23T14:31:29;13.57;;;4.25;;
81353;SDS011;70810;52.038;8.524;2024-03-23T14:33:56;13.00;;;4.95;;
81353;SDS011;70810;52.038;8.524;2024-03-23T14:36:26;12.95;;;6.28;;
81353;SDS011;70810;52.038;8.524;2024-03-23T14:38:53;14.07;;;6.70;;
81353;SDS011;70810;52.038;8.524;2024-03-23T14:41:25;9.77;;;4.88;;
81353;SDS011;70810;52.038;8.524;2024-03-23T14:43:52;15.40;;;9.20;;
81353;SDS011;70810;52.038;8.524;2024-03-23T14:46:24;17.30;;;9.25;;
81353;SDS011;70810;52.038;8.524;2024-03-23T14:49:04;13.30;;;5.13;;
81353;SDS011;70810;52.038;8.524;2024-03-23T14:51:51;13.25;;;5.07;;
81353;SDS011;70810;52.038;8.524;2024-03-23T14:54:31;16.00;;;4.93;;
81353;SDS011;70810;52.038;8.524;2024-03-23T14:57:18;11.45;;;5.60;;
81353;SDS011;70810;52.038;8.524;2024-03-23T14:59:51;14.07;;;5.88;;
81353;SDS011;70810;52.038;8.524;2024-03-23T15:02:19;11.85;;;5.85;;
81353;SDS011;70810;52.038;8.524;2024-03-23T15:04:50;11.90;;;4.53;;
81353;SDS011;70810;52.038;8.524;2024-03-23T15:07:20;13.32;;;4.65;;
81353;SDS011;70810;52.038;8.524;2024-03-23T15:09:47;12.60;;;6.03;;
81353;SDS011;70810;52.038;8.524;2024-03-23T15:12:22;13.30;;;5.28;;
81353;SDS011;70810;52.038;8.524;2024-03-23T15:14:48;11.32;;;4.72;;
81353;SDS011;70810;52.038;8.524;2024-03-23T15:17:15;10.77;;;4.68;;
81353;SDS011;70810;52.038;8.524;2024-03-23T15:19:43;18.20;;;7.07;;
81353;SDS011;70810;52.038;8.524;2024-03-23T15:22:12;10.70;;;7.10;;
81353;SDS011;70810;52.038;8.524;2024-03-23T15:24:48;12.10;;;4.45;;
81353;SDS011;70810;52.038;8.524;2024-03-23T15:27:51;10.02;;;4.15;;
81353;SDS011;70810;52.038;8.524;2024-03-23T15:30:25;16.48;;;8.30;;
81353;SDS011;70810;52.038;8.524;2024-03-23T15:33:03;12.63;;;4.65;;
81353;SDS011;70810;52.038;8.524;2024-03-23T15:35:34;8.45;;;4.40;;
81353;SDS011;70810;52.038;8.524;2024-03-23T15:38:03;11.13;;;4.95;;
81353;SDS011;70810;52.038;8.524;2024-03-23T15:40:33;19.50;;;7.95;;
81353;SDS011;70810;52.038;8.524;2024-03-23T15:42:59;13.70;;;4.53;;
81353;SDS011;70810;52.038;8.524;2024-03-23T15:45:28;13.35;;;4.32;;
81353;SDS011;70810;52.038;8.524;2024-03-23T15:47:56;20.40;;;12.10;;
81353;SDS011;70810;52.038;8.524;2024-03-23T15:50:31;14.10;;;7.05;;
81353;SDS011;70810;52.038;8.524;2024-03-23T15:53:31;14.75;;;6.28;;
81353;SDS011;70810;52.038;8.524;2024-03-23T15:56:28;14.20;;;5.70;;
81353;SDS011;70810;52.038;8.524;2024-03-23T15:58:56;9.15;;;5.50;;